Time;durP1;ratioP1;P1;durP2;ratioP2;P2;SDS_P1;SDS_P2;PMS_P1;PMS_P2;Temp;Humidity;BMP_temperature;BMP_pressure;BME280_temperature;BME280_humidity;BME280_pressure;Samples;Min_cycle;Max_cycle;Signal;HPM_P1;HPM_P2
2023/02/10 00:00:25;;;;;;;;;;;23.20;24.50;;;;;;5068361;28;19928;-55
2023/02/10 00:02:51;;;;;;;;;;;23.10;24.70;;;;;;5068251;28;19945;-61
2023/02/10 00:05:17;;;;;;;;;;;23.10;24.90;;;;;;5071101;28;19922;-57
2023/02/10 00:07:43;;;;;;;;;;;23.10;25.40;;;;;;5068233;28;19932;-61
2023/02/10 00:10:09;;;;;;;;;;;23.10;25.80;;;;;;5069490;28;20332;-59
2023/02/10 00:12:37;;;;;;;;;;;23.00;25.50;;;;;;5068761;28;19941;-62
2023/02/10 00:15:04;;;;;;;;;;;22.90;25.60;;;;;;5068630;28;19930;-59
2023/02/10 00:17:30;;;;;;;;;;;22.90;25.90;;;;;;5073019;28;19929;-58
2023/02/10 00:19:56;;;;;;;;;;;22.90;25.70;;;;;;5069604;28;19991;-58
2023/02/10 00:22:22;;;;;;;;;;;22.90;26.00;;;;;;5071893;28;19924;-60
2023/02/10 00:24:48;;;;;;;;;;;22.90;25.90;;;;;;5068136;28;19929;-60
2023/02/10 00:27:14;;;;;;;;;;;22.80;26.00;;;;;;5068258;28;20064;-58
2023/02/10 00:29:40;;;;;;;;;;;22.90;25.50;;;;;;5068088;28;19936;-58
2023/02/10 00:32:06;;;;;;;;;;;22.70;25.70;;;;;;5068651;28;19947;-57
2023/02/10 00:34:32;;;;;;;;;;;22.60;25.60;;;;;;5069542;28;19950;-54
2023/02/10 00:36:58;;;;;;;;;;;22.50;25.70;;;;;;5072386;28;19923;-60
2023/02/10 00:39:24;;;;;;;;;;;22.30;25.50;;;;;;5072228;28;19932;-62
2023/02/10 00:41:50;;;;;;;;;;;22.30;25.90;;;;;;5071365;28;19932;-55
2023/02/10 00:44:16;;;;;;;;;;;22.20;26.50;;;;;;5070533;28;19920;-57
2023/02/10 00:46:42;;;;;;;;;;;22.30;26.50;;;;;;5071796;28;20284;-58
2023/02/10 00:49:10;;;;;;;;;;;22.50;26.30;;;;;;5070725;28;20341;-55
2023/02/10 00:51:36;;;;;;;;;;;22.40;26.10;;;;;;5072200;28;19936;-60
2023/02/10 00:54:02;;;;;;;;;;;22.10;26.30;;;;;;5070815;28;19934;-60
2023/02/10 00:56:28;;;;;;;;;;;21.90;26.90;;;;;;5071580;28;19950;-55
2023/02/10 00:58:54;;;;;;;;;;;21.80;27.30;;;;;;5072025;28;19926;-59
2023/02/10 01:01:20;;;;;;;;;;;21.70;27.70;;;;;;5084751;28;19931;-56
2023/02/10 01:03:47;;;;;;;;;;;21.60;27.70;;;;;;5073873;28;20045;-61
2023/02/10 01:06:14;;;;;;;;;;;21.30;28.00;;;;;;5072025;28;19942;-58
2023/02/10 01:08:40;;;;;;;;;;;21.20;28.40;;;;;;5076255;28;19935;-61
2023/02/10 01:11:08;;;;;;;;;;;21.10;28.70;;;;;;5072507;28;19927;-60
2023/02/10 01:13:36;;;;;;;;;;;21.00;28.70;;;;;;5087453;28;19943;-59
2023/02/10 01:16:09;;;;;;;;;;;20.80;29.10;;;;;;5087252;28;19927;-55
2023/02/10 01:18:36;;;;;;;;;;;20.60;29.20;;;;;;5071879;28;19928;-60
2023/02/10 01:21:09;;;;;;;;;;;20.50;29.50;;;;;;5072014;28;19960;-56
2023/02/10 01:23:35;;;;;;;;;;;20.40;29.50;;;;;;5072249;28;19952;-56
2023/02/10 01:26:01;;;;;;;;;;;20.30;29.50;;;;;;5071525;28;20016;-57
2023/02/10 01:28:27;;;;;;;;;;;20.10;29.70;;;;;;5071901;28;19935;-60
2023/02/10 01:30:53;;;;;;;;;;;20.10;29.90;;;;;;5071809;28;19937;-60
2023/02/10 01:33:19;;;;;;;;;;;19.90;30.00;;;;;;5071521;28;19957;-54
2023/02/10 01:35:45;;;;;;;;;;;19.70;30.20;;;;;;5071918;28;19931;-54
2023/02/10 01:38:11;;;;;;;;;;;19.70;30.40;;;;;;5071824;28;19928;-59
2023/02/10 01:40:37;;;;;;;;;;;19.70;30.70;;;;;;5074202;28;20284;-60
2023/02/10 01:43:09;;;;;;;;;;;19.50;30.50;;;;;;5069298;28;19935;-60
2023/02/10 01:45:37;;;;;;;;;;;19.50;30.70;;;;;;5070986;28;19931;-60
2023/02/10 01:48:03;;;;;;;;;;;19.40;31.00;;;;;;5070830;28;19931;-59
2023/02/10 01:50:56;;;;;;;;;;;19.30;31.10;;;;;;5070842;28;19935;-60
2023/02/10 01:53:22;;;;;;;;;;;19.00;31.00;;;;;;5068357;28;19949;-61
2023/02/10 01:55:51;;;;;;;;;;;19.00;31.40;;;;;;5070356;28;20011;-60
2023/02/10 01:58:18;;;;;;;;;;;18.90;31.70;;;;;;5072324;28;19981;-59
2023/02/10 02:00:44;;;;;;;;;;;18.80;32.00;;;;;;5073517;28;20042;-61
2023/02/10 02:03:10;;;;;;;;;;;18.80;32.00;;;;;;5070386;28;19953;-61
2023/02/10 02:05:38;;;;;;;;;;;18.80;32.10;;;;;;5069031;28;19931;-56
2023/02/10 02:08:09;;;;;;;;;;;18.70;32.00;;;;;;5067649;28;19930;-60
2023/02/10 02:10:43;;;;;;;;;;;18.50;32.30;;;;;;5067593;28;20624;-59
2023/02/10 02:13:17;;;;;;;;;;;18.50;32.30;;;;;;5068126;28;19962;-58
2023/02/10 02:16:00;;;;;;;;;;;18.40;32.10;;;;;;5069389;28;19926;-59
2023/02/10 02:18:41;;;;;;;;;;;18.30;32.10;;;;;;5069944;28;19946;-59
2023/02/10 02:21:25;;;;;;;;;;;18.30;32.20;;;;;;5069051;28;19949;-60
2023/02/10 02:23:57;;;;;;;;;;;18.20;31.80;;;;;;5070436;28;20020;-63
2023/02/10 02:26:26;;;;;;;;;;;18.20;32.20;;;;;;5068384;28;20429;-64
2023/02/10 02:29:04;;;;;;;;;;;18.10;31.80;;;;;;5069491;28;19980;-65
2023/02/10 02:31:46;;;;;;;;;;;18.00;31.90;;;;;;5070512;28;20042;-61
2023/02/10 02:34:18;;;;;;;;;;;17.90;31.90;;;;;;5071170;28;19963;-59
2023/02/10 02:36:57;;;;;;;;;;;17.90;31.90;;;;;;5069572;28;20046;-59
2023/02/10 02:39:23;;;;;;;;;;;17.80;32.20;;;;;;5070949;28;20026;-61
2023/02/10 02:42:08;;;;;;;;;;;17.80;31.70;;;;;;5070094;28;20032;-63
2023/02/10 02:44:34;;;;;;;;;;;17.80;31.60;;;;;;5069874;28;19934;-60
2023/02/10 02:47:15;;;;;;;;;;;17.70;31.50;;;;;;5065907;28;19941;-60
2023/02/10 02:49:48;;;;;;;;;;;17.70;31.40;;;;;;5069910;28;20394;-60
2023/02/10 02:52:17;;;;;;;;;;;17.60;31.50;;;;;;5066146;28;20350;-61
2023/02/10 02:54:55;;;;;;;;;;;17.50;31.80;;;;;;5065751;28;19962;-59
2023/02/10 02:57:29;;;;;;;;;;;17.50;31.40;;;;;;5068678;28;19936;-60
2023/02/10 03:00:05;;;;;;;;;;;17.50;31.30;;;;;;5068180;28;20752;-59
2023/02/10 03:02:33;;;;;;;;;;;17.40;31.00;;;;;;5069286;28;20347;-60
2023/02/10 03:04:59;;;;;;;;;;;17.30;30.90;;;;;;5069578;28;19949;-59
2023/02/10 03:07:25;;;;;;;;;;;17.20;31.40;;;;;;5070067;28;20420;-55
2023/02/10 03:09:51;;;;;;;;;;;17.10;31.70;;;;;;5070345;28;20034;-61
2023/02/10 03:12:17;;;;;;;;;;;17.10;31.80;;;;;;5069559;28;19950;-60
2023/02/10 03:14:43;;;;;;;;;;;17.00;32.20;;;;;;5068745;28;19947;-60
2023/02/10 03:17:10;;;;;;;;;;;17.10;32.60;;;;;;5069387;28;19937;-61
2023/02/10 03:19:36;;;;;;;;;;;17.00;33.30;;;;;;5069080;28;19936;-60
2023/02/10 03:22:02;;;;;;;;;;;17.00;33.00;;;;;;5068556;28;20490;-60
2023/02/10 03:24:28;;;;;;;;;;;16.80;33.10;;;;;;5070294;28;20012;-60
2023/02/10 03:26:54;;;;;;;;;;;16.80;33.00;;;;;;5068856;28;19953;-60
2023/02/10 03:29:20;;;;;;;;;;;16.70;33.40;;;;;;5069297;28;19944;-61
2023/02/10 03:31:46;;;;;;;;;;;16.60;33.60;;;;;;5068284;28;19971;-60
2023/02/10 03:34:12;;;;;;;;;;;16.60;34.30;;;;;;5069479;28;20307;-60
2023/02/10 03:36:38;;;;;;;;;;;16.60;34.80;;;;;;5068609;28;19941;-63
2023/02/10 03:39:04;;;;;;;;;;;16.60;35.20;;;;;;5068304;28;19959;-60
2023/02/10 03:41:30;;;;;;;;;;;16.50;35.30;;;;;;5068221;28;19938;-60
2023/02/10 03:43:56;;;;;;;;;;;16.50;35.40;;;;;;5068433;28;20004;-61
2023/02/10 03:46:22;;;;;;;;;;;16.40;35.40;;;;;;5068503;28;19943;-60
2023/02/10 03:48:49;;;;;;;;;;;16.30;35.10;;;;;;5067418;28;19954;-60
2023/02/10 03:51:15;;;;;;;;;;;16.20;35.60;;;;;;5067238;28;19953;-60
2023/02/10 03:53:41;;;;;;;;;;;16.10;36.10;;;;;;5070224;28;19977;-55
2023/02/10 03:56:07;;;;;;;;;;;16.20;36.60;;;;;;5067783;28;20108;-64
2023/02/10 03:58:33;;;;;;;;;;;16.20;36.80;;;;;;5067471;28;20085;-60
2023/02/10 04:00:59;;;;;;;;;;;16.20;36.40;;;;;;5066839;28;19949;-60
2023/02/10 04:03:25;;;;;;;;;;;16.00;35.90;;;;;;5066363;28;19963;-61
2023/02/10 04:05:51;;;;;;;;;;;15.80;36.00;;;;;;5065447;28;19946;-59
2023/02/10 04:08:17;;;;;;;;;;;15.80;35.40;;;;;;5067811;28;19951;-59
2023/02/10 04:10:43;;;;;;;;;;;15.80;35.20;;;;;;5072472;28;20042;-60
2023/02/10 04:13:09;;;;;;;;;;;15.90;35.80;;;;;;5073245;28;19976;-60
2023/02/10 04:15:35;;;;;;;;;;;15.80;35.60;;;;;;5076843;28;19944;-60
2023/02/10 04:18:01;;;;;;;;;;;15.90;35.10;;;;;;5072319;28;19944;-60
2023/02/10 04:20:27;;;;;;;;;;;15.90;35.00;;;;;;5073679;28;20373;-60
2023/02/10 04:22:53;;;;;;;;;;;15.80;34.60;;;;;;5071540;28;19939;-60
2023/02/10 04:25:19;;;;;;;;;;;15.70;34.10;;;;;;5072318;28;19947;-60
2023/02/10 04:27:45;;;;;;;;;;;15.70;34.30;;;;;;5072477;28;20279;-60
2023/02/10 04:30:11;;;;;;;;;;;15.70;34.20;;;;;;5072823;28;19946;-60
2023/02/10 04:32:37;;;;;;;;;;;15.70;34.40;;;;;;5071775;28;19983;-59
2023/02/10 04:35:04;;;;;;;;;;;15.70;34.10;;;;;;5072877;28;19966;-59
2023/02/10 04:37:30;;;;;;;;;;;15.70;33.70;;;;;;5072890;28;19944;-59
2023/02/10 04:39:56;;;;;;;;;;;15.70;33.60;;;;;;5074512;28;20440;-56
2023/02/10 04:42:29;;;;;;;;;;;15.70;33.80;;;;;;5072563;28;19961;-61
2023/02/10 04:44:57;;;;;;;;;;;15.60;33.80;;;;;;5072559;28;19949;-59
2023/02/10 04:47:24;;;;;;;;;;;15.60;33.70;;;;;;5086683;28;20317;-58
2023/02/10 04:49:50;;;;;;;;;;;15.60;33.70;;;;;;5070982;28;19945;-57
2023/02/10 04:52:16;;;;;;;;;;;15.60;33.50;;;;;;5072519;28;19971;-61
2023/02/10 04:54:42;;;;;;;;;;;15.60;33.70;;;;;;5072036;28;20328;-52
2023/02/10 04:57:08;;;;;;;;;;;15.60;33.70;;;;;;5088670;28;19953;-53
2023/02/10 04:59:34;;;;;;;;;;;15.60;33.60;;;;;;5073772;28;19949;-51
2023/02/10 05:02:01;;;;;;;;;;;15.50;33.70;;;;;;5084894;28;19955;-51
2023/02/10 05:04:27;;;;;;;;;;;15.40;33.70;;;;;;5071820;28;19962;-57
2023/02/10 05:06:57;;;;;;;;;;;15.50;33.80;;;;;;5073898;28;19955;-58
2023/02/10 05:09:29;;;;;;;;;;;15.50;33.50;;;;;;5071410;28;19949;-60
2023/02/10 05:11:55;;;;;;;;;;;15.40;32.90;;;;;;5071013;28;19962;-56
2023/02/10 05:14:21;;;;;;;;;;;15.40;33.70;;;;;;5076828;28;19943;-55
2023/02/10 05:16:47;;;;;;;;;;;15.40;33.90;;;;;;5071476;28;19948;-58
2023/02/10 05:19:13;;;;;;;;;;;15.20;33.20;;;;;;5070970;28;19947;-55
2023/02/10 05:21:39;;;;;;;;;;;15.20;33.20;;;;;;5070051;28;19975;-60
2023/02/10 05:24:05;;;;;;;;;;;15.10;33.70;;;;;;5070880;28;19949;-56
2023/02/10 05:26:31;;;;;;;;;;;15.10;34.10;;;;;;5071036;28;19951;-59
2023/02/10 05:28:57;;;;;;;;;;;15.10;33.90;;;;;;5071460;28;19969;-55
2023/02/10 05:31:23;;;;;;;;;;;15.10;33.90;;;;;;5070789;28;19947;-63
2023/02/10 05:33:49;;;;;;;;;;;15.00;34.80;;;;;;5070792;28;19974;-60
2023/02/10 05:36:15;;;;;;;;;;;14.90;35.10;;;;;;5070612;28;20039;-60
2023/02/10 05:39:22;;;;;;;;;;;14.80;35.20;;;;;;5074143;28;19958;-60
2023/02/10 05:41:30;;;;;;;;;;;14.80;35.30;;;;;;5070380;28;19962;-60
2023/02/10 05:43:56;;;;;;;;;;;14.80;35.20;;;;;;5070806;28;20047;-59
2023/02/10 05:46:22;;;;;;;;;;;14.80;35.30;;;;;;5076974;28;20392;-56
2023/02/10 05:48:48;;;;;;;;;;;14.70;35.60;;;;;;5069943;28;20467;-58
2023/02/10 05:51:14;;;;;;;;;;;14.70;35.80;;;;;;5067824;28;19944;-59
2023/02/10 05:53:41;;;;;;;;;;;14.70;35.60;;;;;;5070656;28;20360;-60
2023/02/10 05:56:07;;;;;;;;;;;14.60;35.50;;;;;;5070750;28;20413;-61
2023/02/10 05:58:33;;;;;;;;;;;14.50;35.90;;;;;;5073354;28;19998;-55
2023/02/10 06:00:59;;;;;;;;;;;14.50;35.30;;;;;;5071806;28;20424;-58
2023/02/10 06:03:25;;;;;;;;;;;14.40;35.50;;;;;;5069510;28;20018;-57
2023/02/10 06:05:51;;;;;;;;;;;14.50;36.10;;;;;;5085914;28;19952;-59
2023/02/10 06:08:17;;;;;;;;;;;14.50;35.50;;;;;;5069730;28;20048;-61
2023/02/10 06:10:43;;;;;;;;;;;14.40;35.80;;;;;;5072543;28;19946;-61
2023/02/10 06:13:09;;;;;;;;;;;14.30;36.10;;;;;;5072517;28;20330;-60
2023/02/10 06:15:35;;;;;;;;;;;14.30;36.50;;;;;;5070059;28;19949;-62
2023/02/10 06:18:01;;;;;;;;;;;14.30;36.10;;;;;;5070873;28;20362;-54
2023/02/10 06:20:27;;;;;;;;;;;14.20;37.00;;;;;;5069819;28;19956;-60
2023/02/10 06:22:53;;;;;;;;;;;14.10;36.80;;;;;;5072067;28;20001;-61
2023/02/10 06:25:19;;;;;;;;;;;14.10;36.60;;;;;;5075658;28;20007;-57
2023/02/10 06:27:45;;;;;;;;;;;14.10;37.00;;;;;;5069090;28;19993;-60
2023/02/10 06:30:11;;;;;;;;;;;14.00;37.40;;;;;;5069369;28;20004;-59
2023/02/10 06:32:38;;;;;;;;;;;14.00;36.80;;;;;;5076998;28;20424;-61
2023/02/10 06:35:04;;;;;;;;;;;13.90;36.90;;;;;;5077004;28;19954;-60
2023/02/10 06:37:30;;;;;;;;;;;13.80;37.00;;;;;;5069421;28;19950;-59
2023/02/10 06:39:56;;;;;;;;;;;13.80;37.20;;;;;;5070129;28;19970;-59
2023/02/10 06:42:22;;;;;;;;;;;13.80;37.70;;;;;;5069259;28;19951;-59
2023/02/10 06:44:48;;;;;;;;;;;13.80;38.20;;;;;;5073271;28;19961;-59
2023/02/10 06:47:14;;;;;;;;;;;13.80;38.60;;;;;;5069543;28;19974;-60
2023/02/10 06:49:40;;;;;;;;;;;13.70;39.00;;;;;;5069004;28;19964;-59
2023/02/10 06:52:06;;;;;;;;;;;13.70;39.40;;;;;;5068780;28;19968;-61
2023/02/10 06:54:32;;;;;;;;;;;13.60;40.00;;;;;;5069430;28;19958;-55
2023/02/10 06:56:58;;;;;;;;;;;13.40;39.70;;;;;;5068700;28;19968;-57
2023/02/10 06:59:24;;;;;;;;;;;13.40;39.80;;;;;;5069919;28;19951;-54
2023/02/10 07:01:50;;;;;;;;;;;13.40;40.50;;;;;;5068787;28;19950;-60
2023/02/10 07:04:16;;;;;;;;;;;13.30;41.20;;;;;;5068937;28;20316;-60
2023/02/10 07:06:42;;;;;;;;;;;13.20;40.80;;;;;;5069257;28;20378;-57
2023/02/10 07:09:08;;;;;;;;;;;13.20;40.70;;;;;;5069648;28;19981;-57
2023/02/10 07:11:34;;;;;;;;;;;13.00;41.00;;;;;;5069326;28;19957;-58
2023/02/10 07:14:01;;;;;;;;;;;13.00;40.60;;;;;;5068054;28;20448;-59
2023/02/10 07:16:28;;;;;;;;;;;13.00;40.30;;;;;;5069189;28;19977;-60
2023/02/10 07:18:54;;;;;;;;;;;13.10;40.50;;;;;;5068648;28;19958;-59
2023/02/10 07:21:20;;;;;;;;;;;12.90;40.30;;;;;;5068849;28;19947;-60
2023/02/10 07:23:46;;;;;;;;;;;12.90;41.50;;;;;;5068082;28;20350;-58
2023/02/10 07:26:12;;;;;;;;;;;12.80;40.50;;;;;;5069153;28;20407;-60
2023/02/10 07:28:39;;;;;;;;;;;12.90;40.20;;;;;;5069019;28;19958;-56
2023/02/10 07:31:05;;;;;;;;;;;12.80;39.80;;;;;;5068782;28;19972;-54
2023/02/10 07:33:31;;;;;;;;;;;12.70;40.10;;;;;;5068728;28;20025;-59
2023/02/10 07:36:02;;;;;;;;;;;12.50;40.20;;;;;;5084807;28;19974;-62
2023/02/10 07:38:28;;;;;;;;;;;12.50;39.90;;;;;;5068506;28;19971;-65
2023/02/10 07:40:54;;;;;;;;;;;12.50;40.30;;;;;;5069323;28;20414;-62
2023/02/10 07:43:20;;;;;;;;;;;12.50;40.00;;;;;;5068934;28;19957;-61
2023/02/10 07:45:46;;;;;;;;;;;12.50;39.40;;;;;;5068564;28;19960;-60
2023/02/10 07:48:12;;;;;;;;;;;12.50;40.00;;;;;;5067105;28;19958;-59
2023/02/10 07:50:38;;;;;;;;;;;12.50;40.30;;;;;;5068612;28;19958;-60
2023/02/10 07:53:04;;;;;;;;;;;12.40;40.40;;;;;;5068327;28;19967;-60
2023/02/10 07:55:30;;;;;;;;;;;12.40;40.30;;;;;;5068613;28;19958;-60
2023/02/10 07:57:56;;;;;;;;;;;12.30;40.60;;;;;;5068134;28;20325;-64
2023/02/10 08:00:22;;;;;;;;;;;12.40;41.00;;;;;;5069080;28;19951;-63
2023/02/10 08:02:48;;;;;;;;;;;12.30;41.20;;;;;;5070495;28;19973;-62
2023/02/10 08:05:14;;;;;;;;;;;12.20;41.60;;;;;;5069282;28;19950;-62
2023/02/10 08:07:40;;;;;;;;;;;12.20;41.80;;;;;;5068315;28;19955;-61
2023/02/10 08:10:07;;;;;;;;;;;12.00;41.90;;;;;;5069373;28;19966;-61
2023/02/10 08:12:33;;;;;;;;;;;12.10;41.20;;;;;;5083222;28;19970;-62
2023/02/10 08:14:59;;;;;;;;;;;12.10;41.70;;;;;;5068557;28;19959;-58
2023/02/10 08:17:25;;;;;;;;;;;12.10;42.10;;;;;;5073359;28;19965;-60
2023/02/10 08:19:51;;;;;;;;;;;12.10;42.00;;;;;;5075094;28;20053;-60
2023/02/10 08:22:17;;;;;;;;;;;12.10;41.10;;;;;;5068406;28;20409;-59
2023/02/10 08:24:43;;;;;;;;;;;12.00;41.20;;;;;;5068027;28;20044;-62
2023/02/10 08:27:09;;;;;;;;;;;12.10;42.40;;;;;;5068229;28;19973;-60
2023/02/10 08:29:35;;;;;;;;;;;11.90;42.60;;;;;;5068537;28;20030;-59
2023/02/10 08:32:01;;;;;;;;;;;11.70;42.10;;;;;;5068000;28;20420;-60
2023/02/10 08:34:27;;;;;;;;;;;11.70;42.60;;;;;;5068389;28;20317;-59
2023/02/10 08:36:53;;;;;;;;;;;11.70;41.40;;;;;;5068767;28;19953;-58
2023/02/10 08:39:19;;;;;;;;;;;11.70;40.70;;;;;;5068781;28;20726;-62
2023/02/10 08:41:45;;;;;;;;;;;11.70;40.40;;;;;;5067764;28;19975;-62
2023/02/10 08:44:12;;;;;;;;;;;11.70;40.30;;;;;;5068344;28;19990;-62
2023/02/10 08:46:38;;;;;;;;;;;11.70;40.30;;;;;;5067781;28;20046;-61
2023/02/10 08:49:04;;;;;;;;;;;11.70;40.90;;;;;;5067566;28;20452;-67
2023/02/10 08:51:32;;;;;;;;;;;11.70;40.80;;;;;;5068105;28;19958;-61
2023/02/10 08:54:01;;;;;;;;;;;11.80;41.20;;;;;;5067672;28;20066;-64
2023/02/10 08:56:27;;;;;;;;;;;11.80;40.60;;;;;;5069198;28;19967;-59
2023/02/10 08:58:54;;;;;;;;;;;11.70;41.20;;;;;;5071524;28;19957;-60
2023/02/10 09:01:21;;;;;;;;;;;11.50;40.30;;;;;;5072489;28;19962;-63
2023/02/10 09:03:48;;;;;;;;;;;11.50;41.00;;;;;;5070029;28;19971;-59
2023/02/10 09:06:21;;;;;;;;;;;11.40;40.80;;;;;;5071694;28;20003;-63
2023/02/10 09:08:48;;;;;;;;;;;11.30;40.50;;;;;;5078452;28;19954;-63
2023/02/10 09:11:14;;;;;;;;;;;11.40;40.80;;;;;;5071335;28;19966;-58
2023/02/10 09:13:41;;;;;;;;;;;11.40;40.60;;;;;;5069414;28;19980;-60
2023/02/10 09:16:07;;;;;;;;;;;11.30;40.60;;;;;;5070640;28;20061;-63
2023/02/10 09:18:33;;;;;;;;;;;11.30;41.00;;;;;;5072709;28;20325;-61
2023/02/10 09:20:59;;;;;;;;;;;11.30;40.40;;;;;;5071325;28;19971;-60
2023/02/10 09:23:26;;;;;;;;;;;11.20;40.50;;;;;;5071039;28;19987;-60
2023/02/10 09:25:52;;;;;;;;;;;11.20;41.20;;;;;;5070755;28;19973;-63
2023/02/10 09:28:18;;;;;;;;;;;11.20;41.10;;;;;;5070761;28;19949;-56
2023/02/10 09:30:44;;;;;;;;;;;11.20;40.10;;;;;;5070857;28;19953;-59
2023/02/10 09:33:10;;;;;;;;;;;11.30;41.10;;;;;;5070811;28;20501;-61
2023/02/10 09:35:37;;;;;;;;;;;11.20;40.30;;;;;;5076485;28;20531;-60
2023/02/10 09:38:03;;;;;;;;;;;11.30;40.40;;;;;;5071343;28;19950;-58
2023/02/10 09:40:31;;;;;;;;;;;11.10;40.00;;;;;;5075149;28;20064;-60
2023/02/10 09:42:57;;;;;;;;;;;11.10;40.40;;;;;;5070225;28;19953;-61
2023/02/10 09:45:25;;;;;;;;;;;11.10;40.40;;;;;;5070795;28;20329;-63
2023/02/10 09:47:53;;;;;;;;;;;11.10;40.30;;;;;;5070590;28;20494;-58
2023/02/10 09:50:33;;;;;;;;;;;11.00;40.50;;;;;;5073290;28;20405;-63
2023/02/10 09:52:59;;;;;;;;;;;11.00;40.80;;;;;;5070145;28;19977;-60
2023/02/10 09:55:34;;;;;;;;;;;11.10;40.40;;;;;;5070627;28;20301;-60
2023/02/10 09:58:06;;;;;;;;;;;11.10;40.00;;;;;;5069494;28;20431;-62
2023/02/10 10:00:39;;;;;;;;;;;11.10;39.70;;;;;;5070444;28;19994;-59
2023/02/10 10:03:06;;;;;;;;;;;11.20;40.20;;;;;;5070191;28;19969;-59
2023/02/10 10:05:44;;;;;;;;;;;11.20;41.20;;;;;;5070613;28;19952;-59
2023/02/10 10:08:29;;;;;;;;;;;11.10;41.30;;;;;;5069955;28;19956;-59
2023/02/10 10:10:58;;;;;;;;;;;11.00;41.60;;;;;;5069500;28;19995;-57
2023/02/10 10:13:25;;;;;;;;;;;10.80;41.90;;;;;;5069502;28;20078;-59
2023/02/10 10:16:05;;;;;;;;;;;10.80;41.60;;;;;;5069776;28;20046;-59
2023/02/10 10:18:50;;;;;;;;;;;10.80;41.30;;;;;;5069615;28;20536;-59
2023/02/10 10:21:22;;;;;;;;;;;10.80;41.70;;;;;;5070812;28;19951;-58
2023/02/10 10:23:51;;;;;;;;;;;10.80;42.10;;;;;;5069754;28;20351;-60
2023/02/10 10:26:17;;;;;;;;;;;10.70;42.00;;;;;;5069699;28;20006;-60
2023/02/10 10:29:01;;;;;;;;;;;10.70;41.90;;;;;;5067521;28;20420;-59
2023/02/10 10:31:32;;;;;;;;;;;10.70;42.30;;;;;;5069258;28;19967;-58
2023/02/10 10:34:01;;;;;;;;;;;10.70;42.40;;;;;;5069019;28;20336;-62
2023/02/10 10:36:30;;;;;;;;;;;10.60;42.00;;;;;;5075043;28;19997;-59
2023/02/10 10:39:00;;;;;;;;;;;10.50;42.60;;;;;;5070163;28;19957;-60
2023/02/10 10:41:30;;;;;;;;;;;10.40;43.00;;;;;;5069417;28;19971;-58
2023/02/10 10:43:56;;;;;;;;;;;10.30;43.40;;;;;;5069344;28;19969;-63
2023/02/10 10:46:28;;;;;;;;;;;10.40;45.00;;;;;;5069738;28;19958;-58
2023/02/10 10:48:55;;;;;;;;;;;10.40;44.80;;;;;;5068218;28;19954;-62
2023/02/10 10:51:21;;;;;;;;;;;10.40;44.30;;;;;;5069632;28;19958;-65
2023/02/10 10:53:49;;;;;;;;;;;10.30;44.10;;;;;;5067948;28;20022;-59
2023/02/10 10:56:19;;;;;;;;;;;10.30;44.40;;;;;;5068760;28;20404;-57
2023/02/10 10:58:46;;;;;;;;;;;10.20;44.10;;;;;;5069060;28;20396;-59
2023/02/10 11:01:13;;;;;;;;;;;10.10;43.80;;;;;;5068915;28;20056;-59
2023/02/10 11:03:39;;;;;;;;;;;10.10;44.40;;;;;;5069238;28;20071;-59
2023/02/10 11:06:08;;;;;;;;;;;10.00;45.10;;;;;;5069741;28;19949;-61
2023/02/10 11:08:45;;;;;;;;;;;10.00;45.00;;;;;;5068720;28;19971;-56
2023/02/10 11:11:13;;;;;;;;;;;10.00;44.50;;;;;;5069057;28;19951;-60
2023/02/10 11:13:40;;;;;;;;;;;9.90;46.10;;;;;;5068649;28;20016;-59
2023/02/10 11:16:10;;;;;;;;;;;9.90;45.90;;;;;;5069030;28;19968;-57
2023/02/10 11:18:36;;;;;;;;;;;9.90;45.70;;;;;;5068616;28;20467;-56
2023/02/10 11:21:07;;;;;;;;;;;9.90;45.90;;;;;;5069350;28;20398;-62
2023/02/10 11:23:36;;;;;;;;;;;9.80;46.80;;;;;;5069064;28;19951;-61
2023/02/10 11:26:06;;;;;;;;;;;9.70;46.60;;;;;;5067398;28;19950;-59
2023/02/10 11:28:35;;;;;;;;;;;9.80;46.40;;;;;;5068557;28;19958;-57
2023/02/10 11:31:03;;;;;;;;;;;9.80;46.90;;;;;;5068919;28;19989;-59
2023/02/10 11:33:30;;;;;;;;;;;9.70;47.20;;;;;;5068320;28;19986;-60
2023/02/10 11:36:01;;;;;;;;;;;9.70;46.90;;;;;;5069417;28;20063;-58
2023/02/10 11:38:27;;;;;;;;;;;9.70;46.60;;;;;;5069029;28;19987;-61
2023/02/10 11:40:54;;;;;;;;;;;9.70;47.50;;;;;;5068365;28;19958;-61
2023/02/10 11:43:23;;;;;;;;;;;9.50;47.00;;;;;;5069046;28;19952;-62
2023/02/10 11:45:58;;;;;;;;;;;9.60;47.10;;;;;;5073249;28;19953;-58
2023/02/10 11:48:25;;;;;;;;;;;9.60;46.80;;;;;;5068448;28;19970;-58
2023/02/10 11:51:01;;;;;;;;;;;9.70;47.60;;;;;;5068446;28;19950;-59
2023/02/10 11:53:29;;;;;;;;;;;9.70;48.20;;;;;;5067998;28;19972;-60
2023/02/10 11:56:01;;;;;;;;;;;9.60;47.80;;;;;;5068743;28;19959;-62
2023/02/10 11:59:03;;;;;;;;;;;9.60;48.20;;;;;;5068098;28;19952;-60
2023/02/10 12:01:41;;;;;;;;;;;9.40;48.30;;;;;;5068998;28;20060;-60
2023/02/10 12:04:12;;;;;;;;;;;9.30;49.00;;;;;;5068698;28;20000;-59
2023/02/10 12:06:46;;;;;;;;;;;9.30;48.00;;;;;;5068682;28;19966;-58
2023/02/10 12:09:27;;;;;;;;;;;9.40;48.20;;;;;;5068848;28;19959;-61
2023/02/10 12:12:00;;;;;;;;;;;9.50;48.30;;;;;;5068053;28;20499;-58
2023/02/10 12:14:26;;;;;;;;;;;9.60;48.70;;;;;;5068215;28;19976;-60
2023/02/10 12:17:00;;;;;;;;;;;9.50;48.20;;;;;;5068391;28;19966;-62
2023/02/10 12:19:32;;;;;;;;;;;9.20;48.40;;;;;;5072686;28;19947;-63
2023/02/10 12:22:06;;;;;;;;;;;9.10;50.20;;;;;;5068623;28;20000;-62
2023/02/10 12:24:50;;;;;;;;;;;9.10;49.70;;;;;;5068493;28;19952;-59
2023/02/10 12:27:16;;;;;;;;;;;9.10;50.10;;;;;;5068174;28;19957;-59
2023/02/10 12:29:52;;;;;;;;;;;9.30;49.90;;;;;;5068106;28;20330;-58
2023/02/10 12:32:21;;;;;;;;;;;9.30;50.00;;;;;;5070301;28;20314;-61
2023/02/10 12:35:05;;;;;;;;;;;9.30;49.50;;;;;;5071953;28;19987;-57
2023/02/10 12:37:43;;;;;;;;;;;9.40;50.10;;;;;;5071839;28;19956;-60
2023/02/10 12:40:27;;;;;;;;;;;9.40;49.90;;;;;;5073835;28;20301;-60
2023/02/10 12:43:05;;;;;;;;;;;9.40;49.70;;;;;;5074243;28;20332;-58
2023/02/10 12:45:39;;;;;;;;;;;9.20;49.80;;;;;;5071796;28;20294;-58
2023/02/10 12:48:44;;;;;;;;;;;8.90;50.10;;;;;;5070729;28;19961;-59
2023/02/10 12:51:17;;;;;;;;;;;8.90;51.80;;;;;;5028932;28;20182;-58
2023/02/10 12:53:50;;;;;;;;;;;8.80;50.60;;;;;;5029066;28;20022;-64
2023/02/10 12:56:37;;;;;;;;;;;8.90;49.50;;;;;;5028610;28;20561;-58
2023/02/10 12:59:15;;;;;;;;;;;9.10;49.60;;;;;;5028753;28;20388;-57
2023/02/10 13:01:44;;;;;;;;;;;9.20;49.00;;;;;;5028916;28;20054;-62
2023/02/10 13:04:45;;;;;;;;;;;9.10;48.90;;;;;;5029946;28;20553;-59
2023/02/10 13:07:23;;;;;;;;;;;9.10;49.00;;;;;;4951393;28;19958;-56
2023/02/10 13:09:57;;;;;;;;;;;9.30;49.20;;;;;;4951134;28;19953;-61
2023/02/10 13:12:32;;;;;;;;;;;9.30;48.60;;;;;;4951823;28;20024;-58
2023/02/10 13:15:06;;;;;;;;;;;9.30;48.60;;;;;;4950929;28;19953;-58
2023/02/10 13:17:50;;;;;;;;;;;9.20;48.50;;;;;;4953950;28;20046;-58
2023/02/10 13:20:22;;;;;;;;;;;9.20;49.00;;;;;;4950609;28;20086;-61
2023/02/10 13:23:07;;;;;;;;;;;9.20;49.20;;;;;;5000498;28;19950;-59
2023/02/10 13:25:39;;;;;;;;;;;9.20;49.30;;;;;;5007677;28;20029;-60
2023/02/10 13:28:23;;;;;;;;;;;9.00;49.10;;;;;;5007813;28;19946;-59
2023/02/10 13:31:04;;;;;;;;;;;9.10;49.80;;;;;;5012982;28;19951;-61
2023/02/10 13:33:33;;;;;;;;;;;8.90;50.40;;;;;;5008812;28;19978;-58
2023/02/10 13:35:59;;;;;;;;;;;8.90;50.60;;;;;;5009001;28;19959;-55
2023/02/10 13:38:31;;;;;;;;;;;8.70;49.90;;;;;;5010163;28;20040;-59
2023/02/10 13:41:41;;;;;;;;;;;8.80;50.50;;;;;;5009048;28;19968;-60
2023/02/10 13:43:44;;;;;;;;;;;8.90;50.60;;;;;;5064894;28;19953;-58
2023/02/10 13:46:20;;;;;;;;;;;8.70;50.70;;;;;;5070734;28;19956;-57
2023/02/10 13:48:51;;;;;;;;;;;8.80;50.70;;;;;;5070769;28;20051;-60
2023/02/10 13:51:17;;;;;;;;;;;8.70;50.30;;;;;;5070705;28;19954;-57
2023/02/10 13:53:43;;;;;;;;;;;8.80;51.00;;;;;;5070402;28;20942;-57
2023/02/10 13:56:09;;;;;;;;;;;8.70;51.00;;;;;;5070154;28;19952;-58
2023/02/10 13:58:35;;;;;;;;;;;8.60;51.60;;;;;;5070761;28;20058;-59
2023/02/10 14:01:02;;;;;;;;;;;8.70;51.80;;;;;;5076667;28;20403;-58
2023/02/10 14:03:32;;;;;;;;;;;8.60;50.90;;;;;;5070982;28;20071;-61
2023/02/10 14:06:05;;;;;;;;;;;8.50;51.30;;;;;;5070466;28;19950;-61
2023/02/10 14:08:32;;;;;;;;;;;8.50;51.30;;;;;;5070818;28;19953;-59
2023/02/10 14:11:24;;;;;;;;;;;8.40;51.90;;;;;;5070078;28;20036;-64
2023/02/10 14:14:15;;;;;;;;;;;8.40;52.90;;;;;;5069516;28;20000;-58
2023/02/10 14:16:42;;;;;;;;;;;8.40;52.70;;;;;;5070209;28;19954;-60
2023/02/10 14:19:26;;;;;;;;;;;8.30;51.80;;;;;;5073956;28;20419;-58
2023/02/10 14:21:54;;;;;;;;;;;8.10;52.40;;;;;;5070340;28;19958;-60
2023/02/10 14:24:26;;;;;;;;;;;8.10;53.70;;;;;;5070153;28;19948;-58
2023/02/10 14:26:52;;;;;;;;;;;8.10;53.50;;;;;;5068385;28;20028;-60
2023/02/10 14:29:19;;;;;;;;;;;8.20;52.70;;;;;;5070210;28;20402;-62
2023/02/10 14:31:48;;;;;;;;;;;8.30;52.90;;;;;;5068981;28;19962;-59